sensor_id;sensor_type;location;lat;lon;timestamp;P1;durP1;ratioP1;P2;durP2;ratioP2
16450;SDS011;12243;42.708;23.310;2023-09-18T00:00:51;19.98;;;17.15;;
16450;SDS011;12243;42.708;23.310;2023-09-18T00:03:19;20.00;;;18.00;;
16450;SDS011;12243;42.708;23.310;2023-09-18T00:05:49;23.02;;;19.13;;
16450;SDS011;12243;42.708;23.310;2023-09-18T00:08:17;23.80;;;18.48;;
16450;SDS011;12243;42.708;23.310;2023-09-18T00:10:46;21.30;;;19.15;;
16450;SDS011;12243;42.708;23.310;2023-09-18T00:13:15;21.27;;;18.98;;
16450;SDS011;12243;42.708;23.310;2023-09-18T00:15:42;19.95;;;17.58;;
16450;SDS011;12243;42.708;23.310;2023-09-18T00:18:09;20.25;;;18.08;;
16450;SDS011;12243;42.708;23.310;2023-09-18T00:20:38;20.08;;;18.05;;
16450;SDS011;12243;42.708;23.310;2023-09-18T00:23:06;20.83;;;18.38;;
16450;SDS011;12243;42.708;23.310;2023-09-18T00:25:34;20.50;;;18.40;;
16450;SDS011;12243;42.708;23.310;2023-09-18T00:28:02;20.75;;;18.60;;
16450;SDS011;12243;42.708;23.310;2023-09-18T00:30:29;20.55;;;18.67;;
16450;SDS011;12243;42.708;23.310;2023-09-18T00:32:56;20.02;;;18.02;;
16450;SDS011;12243;42.708;23.310;2023-09-18T00:35:24;19.75;;;17.55;;
16450;SDS011;12243;42.708;23.310;2023-09-18T00:37:52;22.40;;;18.48;;
16450;SDS011;12243;42.708;23.310;2023-09-18T00:40:19;19.65;;;17.67;;
16450;SDS011;12243;42.708;23.310;2023-09-18T00:42:46;20.83;;;18.77;;
16450;SDS011;12243;42.708;23.310;2023-09-18T00:45:13;21.83;;;18.77;;
16450;SDS011;12243;42.708;23.310;2023-09-18T00:47:39;21.30;;;19.20;;
16450;SDS011;12243;42.708;23.310;2023-09-18T00:50:07;21.02;;;18.83;;
16450;SDS011;12243;42.708;23.310;2023-09-18T00:52:38;19.25;;;16.73;;
16450;SDS011;12243;42.708;23.310;2023-09-18T00:55:07;18.58;;;16.60;;
16450;SDS011;12243;42.708;23.310;2023-09-18T00:57:34;18.63;;;16.73;;
16450;SDS011;12243;42.708;23.310;2023-09-18T01:00:02;18.30;;;15.82;;
16450;SDS011;12243;42.708;23.310;2023-09-18T01:02:30;17.15;;;15.55;;
16450;SDS011;12243;42.708;23.310;2023-09-18T01:04:57;16.67;;;14.98;;
16450;SDS011;12243;42.708;23.310;2023-09-18T01:07:24;16.20;;;14.60;;
16450;SDS011;12243;42.708;23.310;2023-09-18T01:09:53;16.95;;;15.18;;
16450;SDS011;12243;42.708;23.310;2023-09-18T01:12:23;16.10;;;14.50;;
16450;SDS011;12243;42.708;23.310;2023-09-18T01:14:57;14.63;;;13.05;;
16450;SDS011;12243;42.708;23.310;2023-09-18T01:17:35;17.70;;;13.63;;
16450;SDS011;12243;42.708;23.310;2023-09-18T01:20:04;16.35;;;13.25;;
16450;SDS011;12243;42.708;23.310;2023-09-18T01:22:33;14.77;;;12.88;;
16450;SDS011;12243;42.708;23.310;2023-09-18T01:25:00;14.05;;;12.65;;
16450;SDS011;12243;42.708;23.310;2023-09-18T01:27:27;15.05;;;13.23;;
16450;SDS011;12243;42.708;23.310;2023-09-18T01:29:54;14.27;;;12.77;;
16450;SDS011;12243;42.708;23.310;2023-09-18T01:32:21;14.20;;;12.88;;
16450;SDS011;12243;42.708;23.310;2023-09-18T01:34:53;13.43;;;12.15;;
16450;SDS011;12243;42.708;23.310;2023-09-18T01:37:22;12.43;;;11.27;;
16450;SDS011;12243;42.708;23.310;2023-09-18T01:39:53;15.02;;;12.38;;
16450;SDS011;12243;42.708;23.310;2023-09-18T01:42:23;12.68;;;11.55;;
16450;SDS011;12243;42.708;23.310;2023-09-18T01:44:51;12.50;;;11.30;;
16450;SDS011;12243;42.708;23.310;2023-09-18T01:47:20;14.38;;;12.00;;
16450;SDS011;12243;42.708;23.310;2023-09-18T01:49:48;12.65;;;11.45;;
16450;SDS011;12243;42.708;23.310;2023-09-18T01:52:15;12.48;;;11.27;;
16450;SDS011;12243;42.708;23.310;2023-09-18T01:54:42;13.27;;;11.95;;
16450;SDS011;12243;42.708;23.310;2023-09-18T01:57:12;13.30;;;11.60;;
16450;SDS011;12243;42.708;23.310;2023-09-18T01:59:39;13.57;;;12.32;;
16450;SDS011;12243;42.708;23.310;2023-09-18T02:02:07;12.30;;;11.15;;
16450;SDS011;12243;42.708;23.310;2023-09-18T02:04:35;14.00;;;12.80;;
16450;SDS011;12243;42.708;23.310;2023-09-18T02:07:02;14.02;;;12.63;;
16450;SDS011;12243;42.708;23.310;2023-09-18T02:09:29;13.98;;;12.60;;
16450;SDS011;12243;42.708;23.310;2023-09-18T02:11:56;14.88;;;13.30;;
16450;SDS011;12243;42.708;23.310;2023-09-18T02:14:24;15.90;;;14.38;;
16450;SDS011;12243;42.708;23.310;2023-09-18T02:16:51;15.50;;;13.88;;
16450;SDS011;12243;42.708;23.310;2023-09-18T02:19:19;15.70;;;14.02;;
16450;SDS011;12243;42.708;23.310;2023-09-18T02:21:46;18.90;;;14.73;;
16450;SDS011;12243;42.708;23.310;2023-09-18T02:24:13;16.08;;;14.50;;
16450;SDS011;12243;42.708;23.310;2023-09-18T02:26:39;16.48;;;14.57;;
16450;SDS011;12243;42.708;23.310;2023-09-18T02:29:07;15.90;;;14.30;;
16450;SDS011;12243;42.708;23.310;2023-09-18T02:31:38;14.45;;;13.05;;
16450;SDS011;12243;42.708;23.310;2023-09-18T02:34:05;15.00;;;13.45;;
16450;SDS011;12243;42.708;23.310;2023-09-18T02:36:34;13.52;;;12.23;;
16450;SDS011;12243;42.708;23.310;2023-09-18T02:39:01;14.13;;;12.25;;
16450;SDS011;12243;42.708;23.310;2023-09-18T02:41:27;12.88;;;11.57;;
16450;SDS011;12243;42.708;23.310;2023-09-18T02:43:54;12.05;;;10.85;;
16450;SDS011;12243;42.708;23.310;2023-09-18T02:46:21;14.20;;;11.25;;
16450;SDS011;12243;42.708;23.310;2023-09-18T02:48:49;12.68;;;11.38;;
16450;SDS011;12243;42.708;23.310;2023-09-18T02:51:18;11.63;;;10.55;;
16450;SDS011;12243;42.708;23.310;2023-09-18T02:53:45;12.20;;;10.60;;
16450;SDS011;12243;42.708;23.310;2023-09-18T02:56:12;12.07;;;10.90;;
16450;SDS011;12243;42.708;23.310;2023-09-18T02:58:39;11.07;;;10.18;;
16450;SDS011;12243;42.708;23.310;2023-09-18T03:01:06;12.93;;;10.27;;
16450;SDS011;12243;42.708;23.310;2023-09-18T03:03:34;11.13;;;10.10;;
16450;SDS011;12243;42.708;23.310;2023-09-18T03:06:03;11.77;;;10.45;;
16450;SDS011;12243;42.708;23.310;2023-09-18T03:08:32;11.13;;;10.02;;
16450;SDS011;12243;42.708;23.310;2023-09-18T03:11:00;11.05;;;9.93;;
16450;SDS011;12243;42.708;23.310;2023-09-18T03:13:30;11.35;;;10.07;;
16450;SDS011;12243;42.708;23.310;2023-09-18T03:15:57;10.90;;;9.75;;
16450;SDS011;12243;42.708;23.310;2023-09-18T03:18:26;11.07;;;9.98;;
16450;SDS011;12243;42.708;23.310;2023-09-18T03:20:53;12.23;;;10.23;;
16450;SDS011;12243;42.708;23.310;2023-09-18T03:23:22;11.70;;;10.38;;
16450;SDS011;12243;42.708;23.310;2023-09-18T03:25:49;11.38;;;10.27;;
16450;SDS011;12243;42.708;23.310;2023-09-18T03:28:16;11.65;;;10.55;;
16450;SDS011;12243;42.708;23.310;2023-09-18T03:30:43;19.58;;;11.70;;
16450;SDS011;12243;42.708;23.310;2023-09-18T03:33:10;14.95;;;11.05;;
16450;SDS011;12243;42.708;23.310;2023-09-18T03:35:44;13.45;;;11.65;;
16450;SDS011;12243;42.708;23.310;2023-09-18T03:38:13;13.93;;;12.52;;
16450;SDS011;12243;42.708;23.310;2023-09-18T03:40:43;14.68;;;13.02;;
16450;SDS011;12243;42.708;23.310;2023-09-18T03:43:10;15.57;;;13.30;;
16450;SDS011;12243;42.708;23.310;2023-09-18T03:45:38;15.77;;;14.10;;
16450;SDS011;12243;42.708;23.310;2023-09-18T03:48:07;15.30;;;13.73;;
16450;SDS011;12243;42.708;23.310;2023-09-18T03:50:33;15.50;;;13.90;;
16450;SDS011;12243;42.708;23.310;2023-09-18T03:53:00;17.00;;;14.18;;
16450;SDS011;12243;42.708;23.310;2023-09-18T03:55:27;15.63;;;14.13;;
16450;SDS011;12243;42.708;23.310;2023-09-18T03:57:56;16.52;;;14.63;;
16450;SDS011;12243;42.708;23.310;2023-09-18T04:00:23;16.90;;;14.27;;
16450;SDS011;12243;42.708;23.310;2023-09-18T04:02:50;16.85;;;15.13;;
16450;SDS011;12243;42.708;23.310;2023-09-18T04:05:17;18.52;;;15.10;;
16450;SDS011;12243;42.708;23.310;2023-09-18T04:07:44;17.50;;;15.20;;
16450;SDS011;12243;42.708;23.310;2023-09-18T04:10:11;17.90;;;15.43;;
16450;SDS011;12243;42.708;23.310;2023-09-18T04:12:44;17.50;;;15.32;;
16450;SDS011;12243;42.708;23.310;2023-09-18T04:15:14;17.80;;;15.65;;
16450;SDS011;12243;42.708;23.310;2023-09-18T04:17:42;20.38;;;16.95;;
16450;SDS011;12243;42.708;23.310;2023-09-18T04:20:10;17.27;;;15.48;;
16450;SDS011;12243;42.708;23.310;2023-09-18T04:22:47;25.27;;;15.68;;
16450;SDS011;12243;42.708;23.310;2023-09-18T04:25:15;17.13;;;14.68;;
16450;SDS011;12243;42.708;23.310;2023-09-18T04:27:45;21.00;;;14.30;;
16450;SDS011;12243;42.708;23.310;2023-09-18T04:30:11;17.08;;;14.38;;
16450;SDS011;12243;42.708;23.310;2023-09-18T04:32:41;17.70;;;14.48;;
16450;SDS011;12243;42.708;23.310;2023-09-18T04:35:08;17.57;;;14.57;;
16450;SDS011;12243;42.708;23.310;2023-09-18T04:37:37;17.05;;;13.80;;
16450;SDS011;12243;42.708;23.310;2023-09-18T04:40:06;15.80;;;13.18;;
16450;SDS011;12243;42.708;23.310;2023-09-18T04:42:37;18.30;;;13.43;;
16450;SDS011;12243;42.708;23.310;2023-09-18T04:45:05;17.45;;;13.73;;
16450;SDS011;12243;42.708;23.310;2023-09-18T04:47:35;17.73;;;14.45;;
16450;SDS011;12243;42.708;23.310;2023-09-18T04:50:02;19.33;;;15.10;;
16450;SDS011;12243;42.708;23.310;2023-09-18T04:52:35;19.58;;;14.10;;
16450;SDS011;12243;42.708;23.310;2023-09-18T04:55:03;18.42;;;14.30;;
16450;SDS011;12243;42.708;23.310;2023-09-18T04:57:31;17.05;;;14.43;;
16450;SDS011;12243;42.708;23.310;2023-09-18T04:59:59;18.67;;;14.55;;
16450;SDS011;12243;42.708;23.310;2023-09-18T05:02:26;15.27;;;13.60;;
16450;SDS011;12243;42.708;23.310;2023-09-18T05:04:56;19.77;;;14.13;;
16450;SDS011;12243;42.708;23.310;2023-09-18T05:07:23;19.98;;;13.65;;
16450;SDS011;12243;42.708;23.310;2023-09-18T05:09:51;15.52;;;13.93;;
16450;SDS011;12243;42.708;23.310;2023-09-18T05:12:17;16.10;;;13.73;;
16450;SDS011;12243;42.708;23.310;2023-09-18T05:14:44;16.80;;;13.77;;
16450;SDS011;12243;42.708;23.310;2023-09-18T05:17:13;15.90;;;14.18;;
16450;SDS011;12243;42.708;23.310;2023-09-18T05:19:41;20.35;;;13.88;;
16450;SDS011;12243;42.708;23.310;2023-09-18T05:22:09;16.35;;;13.18;;
16450;SDS011;12243;42.708;23.310;2023-09-18T05:24:37;14.68;;;12.43;;
16450;SDS011;12243;42.708;23.310;2023-09-18T05:27:04;16.10;;;11.75;;
16450;SDS011;12243;42.708;23.310;2023-09-18T05:29:32;14.57;;;11.93;;
16450;SDS011;12243;42.708;23.310;2023-09-18T05:32:00;14.98;;;11.55;;
16450;SDS011;12243;42.708;23.310;2023-09-18T05:34:29;12.35;;;11.20;;
16450;SDS011;12243;42.708;23.310;2023-09-18T05:36:57;17.48;;;10.95;;
16450;SDS011;12243;42.708;23.310;2023-09-18T05:39:25;13.50;;;11.30;;
16450;SDS011;12243;42.708;23.310;2023-09-18T05:41:52;14.32;;;12.07;;
16450;SDS011;12243;42.708;23.310;2023-09-18T05:44:19;16.70;;;12.38;;
16450;SDS011;12243;42.708;23.310;2023-09-18T05:46:45;15.88;;;13.57;;
16450;SDS011;12243;42.708;23.310;2023-09-18T05:49:12;16.05;;;13.10;;
16450;SDS011;12243;42.708;23.310;2023-09-18T05:51:39;14.23;;;12.70;;
16450;SDS011;12243;42.708;23.310;2023-09-18T05:54:06;15.07;;;13.35;;
16450;SDS011;12243;42.708;23.310;2023-09-18T05:56:34;16.27;;;14.48;;
16450;SDS011;12243;42.708;23.310;2023-09-18T05:59:01;17.67;;;13.90;;
16450;SDS011;12243;42.708;23.310;2023-09-18T06:01:28;16.52;;;14.63;;
16450;SDS011;12243;42.708;23.310;2023-09-18T06:03:55;15.23;;;13.43;;
16450;SDS011;12243;42.708;23.310;2023-09-18T06:06:22;15.23;;;13.20;;
16450;SDS011;12243;42.708;23.310;2023-09-18T06:08:50;15.55;;;13.45;;
16450;SDS011;12243;42.708;23.310;2023-09-18T06:11:18;16.63;;;13.07;;
16450;SDS011;12243;42.708;23.310;2023-09-18T06:13:47;14.25;;;12.85;;
16450;SDS011;12243;42.708;23.310;2023-09-18T06:16:13;14.40;;;12.70;;
16450;SDS011;12243;42.708;23.310;2023-09-18T06:18:40;13.70;;;12.27;;
16450;SDS011;12243;42.708;23.310;2023-09-18T06:21:09;12.65;;;11.40;;
16450;SDS011;12243;42.708;23.310;2023-09-18T06:23:36;13.98;;;12.48;;
16450;SDS011;12243;42.708;23.310;2023-09-18T06:26:03;13.05;;;11.32;;
16450;SDS011;12243;42.708;23.310;2023-09-18T06:28:31;11.77;;;10.45;;
16450;SDS011;12243;42.708;23.310;2023-09-18T06:30:59;11.63;;;10.57;;
16450;SDS011;12243;42.708;23.310;2023-09-18T06:33:26;12.00;;;9.82;;
16450;SDS011;12243;42.708;23.310;2023-09-18T06:35:53;10.60;;;9.35;;
16450;SDS011;12243;42.708;23.310;2023-09-18T06:38:19;14.20;;;11.00;;
16450;SDS011;12243;42.708;23.310;2023-09-18T06:40:46;13.02;;;10.52;;
16450;SDS011;12243;42.708;23.310;2023-09-18T06:43:13;11.38;;;10.23;;
16450;SDS011;12243;42.708;23.310;2023-09-18T06:45:40;12.90;;;10.80;;
16450;SDS011;12243;42.708;23.310;2023-09-18T06:48:09;11.73;;;10.50;;
16450;SDS011;12243;42.708;23.310;2023-09-18T06:50:35;12.60;;;11.35;;
16450;SDS011;12243;42.708;23.310;2023-09-18T06:53:04;12.43;;;10.73;;
16450;SDS011;12243;42.708;23.310;2023-09-18T06:55:30;12.90;;;11.60;;
16450;SDS011;12243;42.708;23.310;2023-09-18T06:57:57;12.35;;;11.07;;
16450;SDS011;12243;42.708;23.310;2023-09-18T07:00:24;12.32;;;11.13;;
16450;SDS011;12243;42.708;23.310;2023-09-18T07:02:51;12.80;;;11.05;;
16450;SDS011;12243;42.708;23.310;2023-09-18T07:05:22;12.40;;;11.02;;
16450;SDS011;12243;42.708;23.310;2023-09-18T07:07:49;11.85;;;10.65;;
16450;SDS011;12243;42.708;23.310;2023-09-18T07:10:16;12.50;;;11.30;;
16450;SDS011;12243;42.708;23.310;2023-09-18T07:12:44;15.20;;;12.52;;
16450;SDS011;12243;42.708;23.310;2023-09-18T07:15:11;14.23;;;11.40;;
16450;SDS011;12243;42.708;23.310;2023-09-18T07:17:37;12.07;;;10.88;;
16450;SDS011;12243;42.708;23.310;2023-09-18T07:20:05;15.82;;;12.90;;
16450;SDS011;12243;42.708;23.310;2023-09-18T07:22:40;12.20;;;10.73;;
16450;SDS011;12243;42.708;23.310;2023-09-18T07:25:11;14.20;;;12.07;;
16450;SDS011;12243;42.708;23.310;2023-09-18T07:27:38;14.90;;;13.25;;
16450;SDS011;12243;42.708;23.310;2023-09-18T07:30:09;13.30;;;11.93;;
16450;SDS011;12243;42.708;23.310;2023-09-18T07:32:37;13.52;;;11.63;;
16450;SDS011;12243;42.708;23.310;2023-09-18T07:35:06;13.68;;;12.15;;
16450;SDS011;12243;42.708;23.310;2023-09-18T07:37:34;14.38;;;11.75;;
16450;SDS011;12243;42.708;23.310;2023-09-18T07:40:02;14.32;;;12.30;;
16450;SDS011;12243;42.708;23.310;2023-09-18T07:42:30;12.57;;;11.10;;
16450;SDS011;12243;42.708;23.310;2023-09-18T07:44:56;13.82;;;12.43;;
16450;SDS011;12243;42.708;23.310;2023-09-18T07:47:23;12.82;;;11.48;;
16450;SDS011;12243;42.708;23.310;2023-09-18T07:49:50;12.88;;;11.57;;
16450;SDS011;12243;42.708;23.310;2023-09-18T07:52:19;12.32;;;11.10;;
16450;SDS011;12243;42.708;23.310;2023-09-18T07:54:46;12.70;;;11.50;;
16450;SDS011;12243;42.708;23.310;2023-09-18T07:57:15;13.40;;;12.10;;
16450;SDS011;12243;42.708;23.310;2023-09-18T07:59:42;13.05;;;11.75;;
16450;SDS011;12243;42.708;23.310;2023-09-18T08:02:09;13.15;;;11.93;;
16450;SDS011;12243;42.708;23.310;2023-09-18T08:04:37;12.98;;;11.68;;
16450;SDS011;12243;42.708;23.310;2023-09-18T08:07:04;12.45;;;11.15;;
16450;SDS011;12243;42.708;23.310;2023-09-18T08:09:32;11.85;;;10.65;;
16450;SDS011;12243;42.708;23.310;2023-09-18T08:12:01;11.73;;;10.63;;
16450;SDS011;12243;42.708;23.310;2023-09-18T08:14:30;12.73;;;11.18;;
16450;SDS011;12243;42.708;23.310;2023-09-18T08:16:57;13.27;;;11.88;;
16450;SDS011;12243;42.708;23.310;2023-09-18T08:19:25;11.93;;;10.82;;
16450;SDS011;12243;42.708;23.310;2023-09-18T08:21:53;19.40;;;12.77;;
16450;SDS011;12243;42.708;23.310;2023-09-18T08:24:21;11.60;;;10.50;;
16450;SDS011;12243;42.708;23.310;2023-09-18T08:26:48;10.93;;;9.93;;
16450;SDS011;12243;42.708;23.310;2023-09-18T08:29:15;11.13;;;9.98;;
16450;SDS011;12243;42.708;23.310;2023-09-18T08:31:44;12.07;;;10.82;;
16450;SDS011;12243;42.708;23.310;2023-09-18T08:34:11;10.07;;;9.07;;
16450;SDS011;12243;42.708;23.310;2023-09-18T08:36:38;11.30;;;10.20;;
16450;SDS011;12243;42.708;23.310;2023-09-18T08:39:05;12.02;;;10.95;;
16450;SDS011;12243;42.708;23.310;2023-09-18T08:41:32;12.57;;;10.40;;
16450;SDS011;12243;42.708;23.310;2023-09-18T08:44:04;10.88;;;9.73;;
16450;SDS011;12243;42.708;23.310;2023-09-18T08:46:35;11.60;;;10.55;;
16450;SDS011;12243;42.708;23.310;2023-09-18T08:49:04;10.55;;;9.55;;
16450;SDS011;12243;42.708;23.310;2023-09-18T08:51:33;9.82;;;8.82;;
16450;SDS011;12243;42.708;23.310;2023-09-18T08:54:02;9.65;;;8.75;;
16450;SDS011;12243;42.708;23.310;2023-09-18T08:56:30;12.25;;;9.75;;
16450;SDS011;12243;42.708;23.310;2023-09-18T08:58:59;14.77;;;9.77;;
16450;SDS011;12243;42.708;23.310;2023-09-18T09:01:26;10.70;;;9.75;;
16450;SDS011;12243;42.708;23.310;2023-09-18T09:03:53;11.77;;;10.13;;
16450;SDS011;12243;42.708;23.310;2023-09-18T09:06:22;11.45;;;10.35;;
16450;SDS011;12243;42.708;23.310;2023-09-18T09:08:50;12.80;;;9.80;;
16450;SDS011;12243;42.708;23.310;2023-09-18T09:11:17;10.40;;;9.35;;
16450;SDS011;12243;42.708;23.310;2023-09-18T09:13:45;10.63;;;9.32;;
16450;SDS011;12243;42.708;23.310;2023-09-18T09:16:12;10.70;;;9.63;;
16450;SDS011;12243;42.708;23.310;2023-09-18T09:18:46;9.45;;;8.60;;
16450;SDS011;12243;42.708;23.310;2023-09-18T09:21:14;11.32;;;10.07;;
16450;SDS011;12243;42.708;23.310;2023-09-18T09:23:47;10.70;;;9.60;;
16450;SDS011;12243;42.708;23.310;2023-09-18T09:26:18;8.88;;;8.07;;
16450;SDS011;12243;42.708;23.310;2023-09-18T09:28:46;8.77;;;7.88;;
16450;SDS011;12243;42.708;23.310;2023-09-18T09:31:22;7.93;;;7.22;;
16450;SDS011;12243;42.708;23.310;2023-09-18T09:33:51;9.57;;;8.68;;
16450;SDS011;12243;42.708;23.310;2023-09-18T09:36:19;9.60;;;8.70;;
16450;SDS011;12243;42.708;23.310;2023-09-18T09:38:48;11.20;;;9.40;;
16450;SDS011;12243;42.708;23.310;2023-09-18T09:41:20;9.95;;;9.05;;
16450;SDS011;12243;42.708;23.310;2023-09-18T09:43:47;9.73;;;8.82;;
16450;SDS011;12243;42.708;23.310;2023-09-18T09:46:15;10.00;;;8.95;;
16450;SDS011;12243;42.708;23.310;2023-09-18T09:48:57;9.07;;;8.18;;
16450;SDS011;12243;42.708;23.310;2023-09-18T09:51:26;9.55;;;8.65;;
16450;SDS011;12243;42.708;23.310;2023-09-18T09:53:55;8.98;;;8.23;;
16450;SDS011;12243;42.708;23.310;2023-09-18T09:59:10;15.88;;;8.55;;
16450;SDS011;12243;42.708;23.310;2023-09-18T10:01:38;9.00;;;8.05;;
16450;SDS011;12243;42.708;23.310;2023-09-18T10:04:08;9.05;;;8.20;;
16450;SDS011;12243;42.708;23.310;2023-09-18T10:06:36;9.93;;;8.85;;
16450;SDS011;12243;42.708;23.310;2023-09-18T10:09:05;7.80;;;7.10;;
16450;SDS011;12243;42.708;23.310;2023-09-18T10:11:37;8.35;;;7.53;;
16450;SDS011;12243;42.708;23.310;2023-09-18T10:14:08;9.02;;;7.30;;
16450;SDS011;12243;42.708;23.310;2023-09-18T10:16:39;10.45;;;6.72;;
16450;SDS011;12243;42.708;23.310;2023-09-18T10:19:20;7.82;;;7.20;;
16450;SDS011;12243;42.708;23.310;2023-09-18T10:21:57;8.35;;;7.65;;
16450;SDS011;12243;42.708;23.310;2023-09-18T10:24:33;8.18;;;7.38;;
16450;SDS011;12243;42.708;23.310;2023-09-18T10:27:03;7.43;;;6.72;;
16450;SDS011;12243;42.708;23.310;2023-09-18T10:29:33;7.22;;;6.55;;
16450;SDS011;12243;42.708;23.310;2023-09-18T10:32:02;6.45;;;5.85;;
16450;SDS011;12243;42.708;23.310;2023-09-18T10:34:30;6.25;;;5.65;;
16450;SDS011;12243;42.708;23.310;2023-09-18T10:37:00;6.63;;;6.03;;
16450;SDS011;12243;42.708;23.310;2023-09-18T10:39:34;6.00;;;5.50;;
16450;SDS011;12243;42.708;23.310;2023-09-18T10:42:02;6.30;;;5.80;;
16450;SDS011;12243;42.708;23.310;2023-09-18T10:44:31;6.05;;;5.55;;
16450;SDS011;12243;42.708;23.310;2023-09-18T10:46:58;6.43;;;5.93;;
16450;SDS011;12243;42.708;23.310;2023-09-18T10:49:27;6.78;;;6.00;;
16450;SDS011;12243;42.708;23.310;2023-09-18T10:51:55;5.85;;;5.35;;
16450;SDS011;12243;42.708;23.310;2023-09-18T10:54:24;6.20;;;5.68;;
16450;SDS011;12243;42.708;23.310;2023-09-18T10:56:53;6.10;;;5.50;;
16450;SDS011;12243;42.708;23.310;2023-09-18T10:59:22;5.93;;;5.50;;
16450;SDS011;12243;42.708;23.310;2023-09-18T11:01:49;5.63;;;5.22;;
16450;SDS011;12243;42.708;23.310;2023-09-18T11:04:19;5.57;;;4.90;;
16450;SDS011;12243;42.708;23.310;2023-09-18T11:07:02;5.53;;;5.13;;
16450;SDS011;12243;42.708;23.310;2023-09-18T11:09:30;5.60;;;5.18;;
16450;SDS011;12243;42.708;23.310;2023-09-18T11:12:05;5.40;;;5.00;;
16450;SDS011;12243;42.708;23.310;2023-09-18T11:14:48;5.00;;;4.70;;
16450;SDS011;12243;42.708;23.310;2023-09-18T11:17:30;5.25;;;4.75;;
16450;SDS011;12243;42.708;23.310;2023-09-18T11:20:05;5.63;;;5.13;;
16450;SDS011;12243;42.708;23.310;2023-09-18T11:22:37;6.32;;;4.93;;
16450;SDS011;12243;42.708;23.310;2023-09-18T11:28:04;5.20;;;4.72;;
16450;SDS011;12243;42.708;23.310;2023-09-18T11:30:34;6.70;;;4.57;;
16450;SDS011;12243;42.708;23.310;2023-09-18T11:33:04;5.07;;;4.70;;
16450;SDS011;12243;42.708;23.310;2023-09-18T11:35:31;5.35;;;4.80;;
16450;SDS011;12243;42.708;23.310;2023-09-18T11:38:06;5.45;;;4.95;;
16450;SDS011;12243;42.708;23.310;2023-09-18T11:40:35;5.30;;;4.57;;
16450;SDS011;12243;42.708;23.310;2023-09-18T11:46:01;6.15;;;5.35;;
16450;SDS011;12243;42.708;23.310;2023-09-18T11:48:29;6.88;;;4.80;;
16450;SDS011;12243;42.708;23.310;2023-09-18T11:50:59;4.95;;;4.45;;
16450;SDS011;12243;42.708;23.310;2023-09-18T11:53:32;6.38;;;4.97;;
16450;SDS011;12243;42.708;23.310;2023-09-18T11:56:00;5.43;;;5.00;;
16450;SDS011;12243;42.708;23.310;2023-09-18T11:58:31;5.70;;;5.20;;
16450;SDS011;12243;42.708;23.310;2023-09-18T12:01:11;5.20;;;4.70;;
16450;SDS011;12243;42.708;23.310;2023-09-18T12:03:40;5.30;;;4.88;;
16450;SDS011;12243;42.708;23.310;2023-09-18T12:06:07;5.13;;;4.82;;
16450;SDS011;12243;42.708;23.310;2023-09-18T12:08:38;8.55;;;4.63;;
16450;SDS011;12243;42.708;23.310;2023-09-18T12:11:06;4.57;;;4.35;;
16450;SDS011;12243;42.708;23.310;2023-09-18T12:13:37;4.65;;;4.28;;
16450;SDS011;12243;42.708;23.310;2023-09-18T12:16:04;5.63;;;5.13;;
16450;SDS011;12243;42.708;23.310;2023-09-18T12:18:31;5.03;;;4.63;;
16450;SDS011;12243;42.708;23.310;2023-09-18T12:21:00;6.20;;;4.80;;
16450;SDS011;12243;42.708;23.310;2023-09-18T12:23:36;4.85;;;4.47;;
16450;SDS011;12243;42.708;23.310;2023-09-18T12:26:05;7.88;;;4.72;;
16450;SDS011;12243;42.708;23.310;2023-09-18T12:28:33;5.15;;;4.63;;
16450;SDS011;12243;42.708;23.310;2023-09-18T12:31:03;6.00;;;4.80;;
16450;SDS011;12243;42.708;23.310;2023-09-18T12:33:33;5.90;;;4.88;;
16450;SDS011;12243;42.708;23.310;2023-09-18T12:36:02;5.45;;;4.93;;
16450;SDS011;12243;42.708;23.310;2023-09-18T12:38:30;5.32;;;4.90;;
16450;SDS011;12243;42.708;23.310;2023-09-18T12:40:57;8.43;;;5.43;;
16450;SDS011;12243;42.708;23.310;2023-09-18T12:43:35;5.70;;;5.07;;
16450;SDS011;12243;42.708;23.310;2023-09-18T12:46:05;7.53;;;6.45;;
16450;SDS011;12243;42.708;23.310;2023-09-18T12:48:36;6.82;;;5.00;;
16450;SDS011;12243;42.708;23.310;2023-09-18T12:51:07;5.00;;;4.60;;
16450;SDS011;12243;42.708;23.310;2023-09-18T12:53:34;4.97;;;4.57;;
16450;SDS011;12243;42.708;23.310;2023-09-18T12:56:04;4.85;;;4.47;;
16450;SDS011;12243;42.708;23.310;2023-09-18T12:58:33;4.57;;;4.20;;
16450;SDS011;12243;42.708;23.310;2023-09-18T13:01:04;8.10;;;4.50;;
16450;SDS011;12243;42.708;23.310;2023-09-18T13:03:41;4.50;;;4.20;;
16450;SDS011;12243;42.708;23.310;2023-09-18T13:06:09;5.20;;;4.72;;
16450;SDS011;12243;42.708;23.310;2023-09-18T13:08:37;5.22;;;4.82;;
16450;SDS011;12243;42.708;23.310;2023-09-18T13:11:04;5.53;;;4.50;;
16450;SDS011;12243;42.708;23.310;2023-09-18T13:13:32;4.63;;;4.35;;
16450;SDS011;12243;42.708;23.310;2023-09-18T13:16:00;5.85;;;4.32;;
16450;SDS011;12243;42.708;23.310;2023-09-18T13:18:32;4.57;;;4.07;;
16450;SDS011;12243;42.708;23.310;2023-09-18T13:20:59;4.95;;;4.55;;
16450;SDS011;12243;42.708;23.310;2023-09-18T13:23:29;4.75;;;4.45;;
16450;SDS011;12243;42.708;23.310;2023-09-18T13:26:00;5.03;;;4.60;;
16450;SDS011;12243;42.708;23.310;2023-09-18T13:28:28;5.35;;;4.90;;
16450;SDS011;12243;42.708;23.310;2023-09-18T13:30:56;5.97;;;5.45;;
16450;SDS011;12243;42.708;23.310;2023-09-18T13:33:25;5.93;;;4.50;;
16450;SDS011;12243;42.708;23.310;2023-09-18T13:35:53;5.90;;;5.25;;
16450;SDS011;12243;42.708;23.310;2023-09-18T13:38:21;6.38;;;4.53;;
16450;SDS011;12243;42.708;23.310;2023-09-18T13:40:48;5.07;;;4.55;;
16450;SDS011;12243;42.708;23.310;2023-09-18T13:43:16;4.95;;;4.53;;
16450;SDS011;12243;42.708;23.310;2023-09-18T13:45:44;6.55;;;4.68;;
16450;SDS011;12243;42.708;23.310;2023-09-18T13:48:11;5.43;;;4.70;;
16450;SDS011;12243;42.708;23.310;2023-09-18T13:50:40;5.40;;;5.00;;
16450;SDS011;12243;42.708;23.310;2023-09-18T13:53:09;5.30;;;4.90;;
16450;SDS011;12243;42.708;23.310;2023-09-18T13:55:36;6.68;;;5.40;;
16450;SDS011;12243;42.708;23.310;2023-09-18T13:58:03;5.30;;;4.90;;
16450;SDS011;12243;42.708;23.310;2023-09-18T14:00:30;4.55;;;4.10;;
16450;SDS011;12243;42.708;23.310;2023-09-18T14:02:58;5.25;;;4.75;;
16450;SDS011;12243;42.708;23.310;2023-09-18T14:05:26;7.28;;;4.78;;
16450;SDS011;12243;42.708;23.310;2023-09-18T14:07:55;4.40;;;4.00;;
16450;SDS011;12243;42.708;23.310;2023-09-18T14:10:26;6.30;;;4.53;;
16450;SDS011;12243;42.708;23.310;2023-09-18T14:12:53;5.35;;;4.22;;
16450;SDS011;12243;42.708;23.310;2023-09-18T14:15:22;12.77;;;5.20;;
16450;SDS011;12243;42.708;23.310;2023-09-18T14:17:49;7.32;;;4.88;;
16450;SDS011;12243;42.708;23.310;2023-09-18T14:20:16;4.55;;;4.25;;
16450;SDS011;12243;42.708;23.310;2023-09-18T14:22:45;4.43;;;4.18;;
16450;SDS011;12243;42.708;23.310;2023-09-18T14:25:14;4.93;;;4.40;;
16450;SDS011;12243;42.708;23.310;2023-09-18T14:27:43;5.60;;;4.35;;
16450;SDS011;12243;42.708;23.310;2023-09-18T14:30:10;4.43;;;4.03;;
16450;SDS011;12243;42.708;23.310;2023-09-18T14:32:38;5.15;;;4.75;;
16450;SDS011;12243;42.708;23.310;2023-09-18T14:35:06;5.90;;;5.10;;